sensor_id;sensor_type;location;lat;lon;timestamp;P1;durP1;ratioP1;P2;durP2;ratioP2
51877;SDS011;37911;51.526;11.536;2023-07-20T00:01:19;9.27;;;3.00;;
51877;SDS011;37911;51.526;11.536;2023-07-20T00:04:22;9.80;;;3.42;;
51877;SDS011;37911;51.526;11.536;2023-07-20T00:07:26;6.10;;;2.95;;
51877;SDS011;37911;51.526;11.536;2023-07-20T00:10:29;8.80;;;2.83;;
51877;SDS011;37911;51.526;11.536;2023-07-20T00:13:35;6.93;;;2.80;;
51877;SDS011;37911;51.526;11.536;2023-07-20T00:16:39;10.82;;;3.65;;
51877;SDS011;37911;51.526;11.536;2023-07-20T00:19:42;6.40;;;3.10;;
51877;SDS011;37911;51.526;11.536;2023-07-20T00:22:46;6.70;;;2.78;;
51877;SDS011;37911;51.526;11.536;2023-07-20T00:25:51;7.53;;;3.38;;
51877;SDS011;37911;51.526;11.536;2023-07-20T00:28:57;7.70;;;3.25;;
51877;SDS011;37911;51.526;11.536;2023-07-20T00:32:00;8.00;;;3.58;;
51877;SDS011;37911;51.526;11.536;2023-07-20T00:35:06;7.85;;;3.00;;
51877;SDS011;37911;51.526;11.536;2023-07-20T00:38:10;6.72;;;3.15;;
51877;SDS011;37911;51.526;11.536;2023-07-20T00:41:13;7.43;;;3.20;;
51877;SDS011;37911;51.526;11.536;2023-07-20T00:44:19;6.82;;;3.15;;
51877;SDS011;37911;51.526;11.536;2023-07-20T00:47:23;8.63;;;3.30;;
51877;SDS011;37911;51.526;11.536;2023-07-20T00:50:27;10.15;;;3.80;;
51877;SDS011;37911;51.526;11.536;2023-07-20T00:53:31;9.88;;;4.40;;
51877;SDS011;37911;51.526;11.536;2023-07-20T00:56:35;5.97;;;3.22;;
51877;SDS011;37911;51.526;11.536;2023-07-20T00:59:42;11.07;;;3.30;;
51877;SDS011;37911;51.526;11.536;2023-07-20T01:02:45;8.77;;;3.53;;
51877;SDS011;37911;51.526;11.536;2023-07-20T01:05:51;11.40;;;3.72;;
51877;SDS011;37911;51.526;11.536;2023-07-20T01:09:01;12.98;;;3.20;;
51877;SDS011;37911;51.526;11.536;2023-07-20T01:12:12;7.47;;;3.70;;
51877;SDS011;37911;51.526;11.536;2023-07-20T01:15:24;7.93;;;4.18;;
51877;SDS011;37911;51.526;11.536;2023-07-20T01:18:28;6.07;;;3.58;;
51877;SDS011;37911;51.526;11.536;2023-07-20T01:21:33;10.07;;;3.80;;
51877;SDS011;37911;51.526;11.536;2023-07-20T01:24:50;8.30;;;4.07;;
51877;SDS011;37911;51.526;11.536;2023-07-20T01:31:39;10.98;;;4.03;;
51877;SDS011;37911;51.526;11.536;2023-07-20T01:34:44;7.97;;;3.45;;
51877;SDS011;37911;51.526;11.536;2023-07-20T01:37:50;7.97;;;3.25;;
51877;SDS011;37911;51.526;11.536;2023-07-20T01:40:54;11.02;;;3.70;;
51877;SDS011;37911;51.526;11.536;2023-07-20T01:43:59;9.50;;;4.13;;
51877;SDS011;37911;51.526;11.536;2023-07-20T01:47:05;10.45;;;3.72;;
51877;SDS011;37911;51.526;11.536;2023-07-20T01:50:09;7.10;;;3.67;;
51877;SDS011;37911;51.526;11.536;2023-07-20T01:53:13;8.98;;;3.90;;
51877;SDS011;37911;51.526;11.536;2023-07-20T01:56:16;9.75;;;3.88;;
51877;SDS011;37911;51.526;11.536;2023-07-20T01:59:20;11.70;;;4.00;;
51877;SDS011;37911;51.526;11.536;2023-07-20T02:02:26;7.22;;;3.70;;
51877;SDS011;37911;51.526;11.536;2023-07-20T02:05:30;11.77;;;4.60;;
51877;SDS011;37911;51.526;11.536;2023-07-20T02:08:34;11.48;;;4.28;;
51877;SDS011;37911;51.526;11.536;2023-07-20T02:11:37;10.75;;;4.38;;
51877;SDS011;37911;51.526;11.536;2023-07-20T02:14:40;10.43;;;4.60;;
51877;SDS011;37911;51.526;11.536;2023-07-20T02:17:47;8.98;;;4.63;;
51877;SDS011;37911;51.526;11.536;2023-07-20T02:20:52;8.40;;;4.25;;
51877;SDS011;37911;51.526;11.536;2023-07-20T02:23:56;11.13;;;5.25;;
51877;SDS011;37911;51.526;11.536;2023-07-20T02:26:59;9.95;;;5.43;;
51877;SDS011;37911;51.526;11.536;2023-07-20T02:30:03;10.63;;;5.15;;
51877;SDS011;37911;51.526;11.536;2023-07-20T02:33:10;9.10;;;4.90;;
51877;SDS011;37911;51.526;11.536;2023-07-20T02:36:14;12.32;;;5.75;;
51877;SDS011;37911;51.526;11.536;2023-07-20T02:39:18;10.30;;;4.40;;
51877;SDS011;37911;51.526;11.536;2023-07-20T02:42:22;15.82;;;6.00;;
51877;SDS011;37911;51.526;11.536;2023-07-20T02:45:26;8.85;;;4.53;;
51877;SDS011;37911;51.526;11.536;2023-07-20T02:48:32;13.35;;;5.05;;
51877;SDS011;37911;51.526;11.536;2023-07-20T02:51:35;14.38;;;5.03;;
51877;SDS011;37911;51.526;11.536;2023-07-20T02:54:39;9.55;;;4.55;;
51877;SDS011;37911;51.526;11.536;2023-07-20T02:57:42;11.95;;;4.65;;
51877;SDS011;37911;51.526;11.536;2023-07-20T03:00:46;15.77;;;4.88;;
51877;SDS011;37911;51.526;11.536;2023-07-20T03:03:52;13.98;;;4.63;;
51877;SDS011;37911;51.526;11.536;2023-07-20T03:06:56;17.00;;;5.40;;
51877;SDS011;37911;51.526;11.536;2023-07-20T03:10:00;9.07;;;4.65;;
51877;SDS011;37911;51.526;11.536;2023-07-20T03:13:04;9.73;;;4.30;;
51877;SDS011;37911;51.526;11.536;2023-07-20T03:16:08;14.13;;;4.63;;
51877;SDS011;37911;51.526;11.536;2023-07-20T03:19:15;11.48;;;4.40;;
51877;SDS011;37911;51.526;11.536;2023-07-20T03:22:19;8.98;;;4.55;;
51877;SDS011;37911;51.526;11.536;2023-07-20T03:25:22;9.52;;;4.18;;
51877;SDS011;37911;51.526;11.536;2023-07-20T03:28:26;8.50;;;4.05;;
51877;SDS011;37911;51.526;11.536;2023-07-20T03:31:29;11.68;;;4.35;;
51877;SDS011;37911;51.526;11.536;2023-07-20T03:34:35;10.20;;;4.10;;
51877;SDS011;37911;51.526;11.536;2023-07-20T03:37:39;7.22;;;3.92;;
51877;SDS011;37911;51.526;11.536;2023-07-20T03:40:49;9.48;;;4.45;;
51877;SDS011;37911;51.526;11.536;2023-07-20T03:43:53;9.93;;;4.47;;
51877;SDS011;37911;51.526;11.536;2023-07-20T03:46:56;11.52;;;4.30;;
51877;SDS011;37911;51.526;11.536;2023-07-20T03:50:02;8.57;;;4.13;;
51877;SDS011;37911;51.526;11.536;2023-07-20T03:53:07;7.90;;;4.07;;
51877;SDS011;37911;51.526;11.536;2023-07-20T03:56:10;13.38;;;5.03;;
51877;SDS011;37911;51.526;11.536;2023-07-20T03:59:13;13.13;;;5.70;;
51877;SDS011;37911;51.526;11.536;2023-07-20T04:02:17;12.40;;;4.82;;
51877;SDS011;37911;51.526;11.536;2023-07-20T04:05:23;12.05;;;5.28;;
51877;SDS011;37911;51.526;11.536;2023-07-20T04:08:26;9.27;;;4.88;;
51877;SDS011;37911;51.526;11.536;2023-07-20T04:11:30;13.55;;;5.30;;
51877;SDS011;37911;51.526;11.536;2023-07-20T04:14:33;12.95;;;5.40;;
51877;SDS011;37911;51.526;11.536;2023-07-20T04:17:37;13.65;;;6.15;;
51877;SDS011;37911;51.526;11.536;2023-07-20T04:20:43;13.13;;;5.47;;
51877;SDS011;37911;51.526;11.536;2023-07-20T04:23:47;11.88;;;5.57;;
51877;SDS011;37911;51.526;11.536;2023-07-20T04:26:50;8.88;;;5.10;;
51877;SDS011;37911;51.526;11.536;2023-07-20T04:29:54;13.85;;;5.10;;
51877;SDS011;37911;51.526;11.536;2023-07-20T04:32:57;12.05;;;4.88;;
51877;SDS011;37911;51.526;11.536;2023-07-20T04:36:04;13.25;;;5.10;;
51877;SDS011;37911;51.526;11.536;2023-07-20T04:39:10;9.57;;;4.60;;
51877;SDS011;37911;51.526;11.536;2023-07-20T04:42:17;12.32;;;5.13;;
51877;SDS011;37911;51.526;11.536;2023-07-20T04:45:21;11.27;;;4.90;;
51877;SDS011;37911;51.526;11.536;2023-07-20T04:48:25;14.38;;;4.65;;
51877;SDS011;37911;51.526;11.536;2023-07-20T04:51:33;11.82;;;4.90;;
51877;SDS011;37911;51.526;11.536;2023-07-20T04:54:36;11.05;;;4.53;;
51877;SDS011;37911;51.526;11.536;2023-07-20T04:57:40;11.55;;;4.75;;
51877;SDS011;37911;51.526;11.536;2023-07-20T05:00:44;10.25;;;4.70;;
51877;SDS011;37911;51.526;11.536;2023-07-20T05:03:47;9.80;;;4.75;;
51877;SDS011;37911;51.526;11.536;2023-07-20T05:06:54;12.02;;;4.88;;
51877;SDS011;37911;51.526;11.536;2023-07-20T05:09:58;11.07;;;4.57;;
51877;SDS011;37911;51.526;11.536;2023-07-20T05:13:02;8.60;;;4.32;;
51877;SDS011;37911;51.526;11.536;2023-07-20T05:16:05;7.75;;;4.07;;
51877;SDS011;37911;51.526;11.536;2023-07-20T05:19:09;8.48;;;4.95;;
51877;SDS011;37911;51.526;11.536;2023-07-20T05:22:15;15.93;;;5.57;;
51877;SDS011;37911;51.526;11.536;2023-07-20T05:25:19;17.10;;;4.35;;
51877;SDS011;37911;51.526;11.536;2023-07-20T05:28:23;6.80;;;3.97;;
51877;SDS011;37911;51.526;11.536;2023-07-20T05:31:26;13.38;;;4.55;;
51877;SDS011;37911;51.526;11.536;2023-07-20T05:34:31;14.30;;;4.93;;
51877;SDS011;37911;51.526;11.536;2023-07-20T05:37:37;12.50;;;5.18;;
51877;SDS011;37911;51.526;11.536;2023-07-20T05:40:41;15.90;;;5.00;;
51877;SDS011;37911;51.526;11.536;2023-07-20T05:43:45;12.88;;;4.95;;
51877;SDS011;37911;51.526;11.536;2023-07-20T05:46:48;17.70;;;8.57;;
51877;SDS011;37911;51.526;11.536;2023-07-20T05:49:52;10.05;;;5.03;;
51877;SDS011;37911;51.526;11.536;2023-07-20T05:52:58;7.18;;;4.82;;
51877;SDS011;37911;51.526;11.536;2023-07-20T05:56:02;15.10;;;5.35;;
51877;SDS011;37911;51.526;11.536;2023-07-20T05:59:06;13.65;;;5.75;;
51877;SDS011;37911;51.526;11.536;2023-07-20T06:02:09;11.52;;;5.47;;
51877;SDS011;37911;51.526;11.536;2023-07-20T06:05:13;17.33;;;5.78;;
51877;SDS011;37911;51.526;11.536;2023-07-20T06:08:19;11.93;;;5.20;;
51877;SDS011;37911;51.526;11.536;2023-07-20T06:11:23;11.38;;;5.43;;
51877;SDS011;37911;51.526;11.536;2023-07-20T06:14:26;7.63;;;5.00;;
51877;SDS011;37911;51.526;11.536;2023-07-20T06:17:30;10.55;;;4.97;;
51877;SDS011;37911;51.526;11.536;2023-07-20T06:20:33;10.65;;;4.88;;
51877;SDS011;37911;51.526;11.536;2023-07-20T06:23:40;8.73;;;4.90;;
51877;SDS011;37911;51.526;11.536;2023-07-20T06:26:44;20.10;;;5.57;;
51877;SDS011;37911;51.526;11.536;2023-07-20T06:29:47;10.90;;;5.10;;
51877;SDS011;37911;51.526;11.536;2023-07-20T06:32:51;11.57;;;4.70;;
51877;SDS011;37911;51.526;11.536;2023-07-20T06:35:54;12.23;;;5.55;;
51877;SDS011;37911;51.526;11.536;2023-07-20T06:39:00;9.52;;;4.20;;
51877;SDS011;37911;51.526;11.536;2023-07-20T06:42:05;12.25;;;4.22;;
51877;SDS011;37911;51.526;11.536;2023-07-20T06:45:09;13.30;;;5.03;;
51877;SDS011;37911;51.526;11.536;2023-07-20T06:48:13;9.55;;;4.20;;
51877;SDS011;37911;51.526;11.536;2023-07-20T06:51:17;7.53;;;3.80;;
51877;SDS011;37911;51.526;11.536;2023-07-20T06:54:23;8.32;;;4.60;;
51877;SDS011;37911;51.526;11.536;2023-07-20T06:57:27;12.52;;;4.80;;
51877;SDS011;37911;51.526;11.536;2023-07-20T07:00:30;8.27;;;5.30;;
51877;SDS011;37911;51.526;11.536;2023-07-20T07:03:34;16.65;;;5.80;;
51877;SDS011;37911;51.526;11.536;2023-07-20T07:06:37;15.20;;;5.65;;
51877;SDS011;37911;51.526;11.536;2023-07-20T07:09:44;13.45;;;6.28;;
51877;SDS011;37911;51.526;11.536;2023-07-20T07:12:47;10.52;;;5.80;;
51877;SDS011;37911;51.526;11.536;2023-07-20T07:15:51;10.13;;;5.07;;
51877;SDS011;37911;51.526;11.536;2023-07-20T07:18:54;11.52;;;4.90;;
51877;SDS011;37911;51.526;11.536;2023-07-20T07:21:58;10.77;;;5.20;;
51877;SDS011;37911;51.526;11.536;2023-07-20T07:25:05;12.85;;;6.32;;
51877;SDS011;37911;51.526;11.536;2023-07-20T07:28:09;15.15;;;5.90;;
51877;SDS011;37911;51.526;11.536;2023-07-20T07:31:13;13.18;;;5.45;;
51877;SDS011;37911;51.526;11.536;2023-07-20T07:34:16;12.32;;;6.63;;
51877;SDS011;37911;51.526;11.536;2023-07-20T07:37:20;14.73;;;5.45;;
51877;SDS011;37911;51.526;11.536;2023-07-20T07:40:26;10.43;;;5.60;;
51877;SDS011;37911;51.526;11.536;2023-07-20T07:43:30;13.63;;;5.25;;
51877;SDS011;37911;51.526;11.536;2023-07-20T07:46:35;26.45;;;6.15;;
51877;SDS011;37911;51.526;11.536;2023-07-20T07:49:38;10.90;;;4.72;;
51877;SDS011;37911;51.526;11.536;2023-07-20T07:52:42;12.13;;;4.95;;
51877;SDS011;37911;51.526;11.536;2023-07-20T07:55:49;10.88;;;4.72;;
51877;SDS011;37911;51.526;11.536;2023-07-20T07:58:53;7.80;;;3.55;;
51877;SDS011;37911;51.526;11.536;2023-07-20T08:01:57;4.65;;;2.70;;
51877;SDS011;37911;51.526;11.536;2023-07-20T08:05:00;5.13;;;2.60;;
51877;SDS011;37911;51.526;11.536;2023-07-20T08:08:04;8.73;;;2.83;;
51877;SDS011;37911;51.526;11.536;2023-07-20T08:11:11;8.02;;;2.60;;
51877;SDS011;37911;51.526;11.536;2023-07-20T08:14:14;7.78;;;2.33;;
51877;SDS011;37911;51.526;11.536;2023-07-20T08:17:19;6.60;;;2.40;;
51877;SDS011;37911;51.526;11.536;2023-07-20T08:20:22;4.97;;;2.67;;
51877;SDS011;37911;51.526;11.536;2023-07-20T08:23:26;8.80;;;2.90;;
51877;SDS011;37911;51.526;11.536;2023-07-20T08:26:33;17.77;;;10.05;;
51877;SDS011;37911;51.526;11.536;2023-07-20T08:29:36;11.25;;;5.25;;
51877;SDS011;37911;51.526;11.536;2023-07-20T08:32:40;18.77;;;10.95;;
51877;SDS011;37911;51.526;11.536;2023-07-20T08:35:44;21.42;;;13.32;;
51877;SDS011;37911;51.526;11.536;2023-07-20T08:38:48;50.78;;;30.23;;
51877;SDS011;37911;51.526;11.536;2023-07-20T08:41:54;7.47;;;3.28;;
51877;SDS011;37911;51.526;11.536;2023-07-20T08:44:58;15.95;;;8.88;;
51877;SDS011;37911;51.526;11.536;2023-07-20T08:48:04;11.50;;;5.13;;
51877;SDS011;37911;51.526;11.536;2023-07-20T08:51:08;14.88;;;8.55;;
51877;SDS011;37911;51.526;11.536;2023-07-20T08:54:13;11.32;;;6.13;;
51877;SDS011;37911;51.526;11.536;2023-07-20T08:57:21;6.95;;;3.10;;
51877;SDS011;37911;51.526;11.536;2023-07-20T09:00:25;9.13;;;2.80;;
51877;SDS011;37911;51.526;11.536;2023-07-20T09:03:29;6.70;;;3.25;;
51877;SDS011;37911;51.526;11.536;2023-07-20T09:06:33;1.95;;;1.30;;
51877;SDS011;37911;51.526;11.536;2023-07-20T09:09:39;4.32;;;1.52;;
51877;SDS011;37911;51.526;11.536;2023-07-20T09:12:46;11.07;;;1.63;;
51877;SDS011;37911;51.526;11.536;2023-07-20T09:15:52;3.78;;;1.05;;
51877;SDS011;37911;51.526;11.536;2023-07-20T09:18:57;3.08;;;0.93;;
51877;SDS011;37911;51.526;11.536;2023-07-20T09:22:01;6.90;;;1.20;;
51877;SDS011;37911;51.526;11.536;2023-07-20T09:25:05;4.63;;;1.50;;
51877;SDS011;37911;51.526;11.536;2023-07-20T09:28:13;4.95;;;1.73;;
51877;SDS011;37911;51.526;11.536;2023-07-20T09:31:17;3.90;;;2.40;;
51877;SDS011;37911;51.526;11.536;2023-07-20T09:34:21;8.25;;;3.38;;
51877;SDS011;37911;51.526;11.536;2023-07-20T09:37:24;8.40;;;4.07;;
51877;SDS011;37911;51.526;11.536;2023-07-20T09:40:28;4.82;;;3.63;;
51877;SDS011;37911;51.526;11.536;2023-07-20T09:43:34;10.18;;;3.13;;
51877;SDS011;37911;51.526;11.536;2023-07-20T09:46:41;8.98;;;5.50;;
51877;SDS011;37911;51.526;11.536;2023-07-20T09:49:45;4.18;;;2.90;;
51877;SDS011;37911;51.526;11.536;2023-07-20T09:52:48;6.60;;;2.95;;
51877;SDS011;37911;51.526;11.536;2023-07-20T09:55:52;2.72;;;2.28;;
51877;SDS011;37911;51.526;11.536;2023-07-20T09:58:59;3.25;;;2.22;;
51877;SDS011;37911;51.526;11.536;2023-07-20T10:02:04;4.50;;;2.20;;
51877;SDS011;37911;51.526;11.536;2023-07-20T10:05:14;7.85;;;3.05;;
51877;SDS011;37911;51.526;11.536;2023-07-20T10:08:21;5.78;;;2.95;;
51877;SDS011;37911;51.526;11.536;2023-07-20T10:11:28;5.43;;;2.38;;
51877;SDS011;37911;51.526;11.536;2023-07-20T10:14:40;14.60;;;8.45;;
51877;SDS011;37911;51.526;11.536;2023-07-20T10:17:47;8.35;;;4.50;;
51877;SDS011;37911;51.526;11.536;2023-07-20T10:20:56;4.85;;;2.90;;
51877;SDS011;37911;51.526;11.536;2023-07-20T10:24:02;3.80;;;2.42;;
51877;SDS011;37911;51.526;11.536;2023-07-20T10:27:07;3.53;;;2.42;;
51877;SDS011;37911;51.526;11.536;2023-07-20T10:30:13;3.45;;;2.20;;
51877;SDS011;37911;51.526;11.536;2023-07-20T10:33:18;4.45;;;2.50;;
51877;SDS011;37911;51.526;11.536;2023-07-20T10:36:24;5.53;;;3.05;;
51877;SDS011;37911;51.526;11.536;2023-07-20T10:39:30;3.30;;;2.67;;
51877;SDS011;37911;51.526;11.536;2023-07-20T10:42:35;10.20;;;4.93;;
51877;SDS011;37911;51.526;11.536;2023-07-20T10:45:48;3.63;;;3.15;;
51877;SDS011;37911;51.526;11.536;2023-07-20T10:48:58;4.07;;;3.00;;
51877;SDS011;37911;51.526;11.536;2023-07-20T10:52:05;5.35;;;3.10;;
51877;SDS011;37911;51.526;11.536;2023-07-20T10:55:14;18.98;;;13.40;;
51877;SDS011;37911;51.526;11.536;2023-07-20T10:58:17;3.63;;;3.20;;
51877;SDS011;37911;51.526;11.536;2023-07-20T11:01:30;5.07;;;3.72;;
51877;SDS011;37911;51.526;11.536;2023-07-20T11:04:40;6.07;;;4.45;;
51877;SDS011;37911;51.526;11.536;2023-07-20T11:07:44;6.82;;;4.90;;
51877;SDS011;37911;51.526;11.536;2023-07-20T11:10:48;5.90;;;4.43;;
51877;SDS011;37911;51.526;11.536;2023-07-20T11:14:27;4.63;;;4.05;;
51877;SDS011;37911;51.526;11.536;2023-07-20T11:17:37;5.07;;;3.50;;
51877;SDS011;37911;51.526;11.536;2023-07-20T11:20:40;5.45;;;3.65;;
51877;SDS011;37911;51.526;11.536;2023-07-20T11:23:44;6.95;;;4.13;;
51877;SDS011;37911;51.526;11.536;2023-07-20T11:26:51;5.30;;;4.30;;
51877;SDS011;37911;51.526;11.536;2023-07-20T11:29:56;7.32;;;4.57;;
51877;SDS011;37911;51.526;11.536;2023-07-20T11:33:02;8.13;;;5.88;;
51877;SDS011;37911;51.526;11.536;2023-07-20T11:36:06;8.30;;;5.85;;
51877;SDS011;37911;51.526;11.536;2023-07-20T11:39:11;8.52;;;5.28;;
51877;SDS011;37911;51.526;11.536;2023-07-20T11:42:15;5.85;;;4.50;;
51877;SDS011;37911;51.526;11.536;2023-07-20T11:45:22;5.95;;;4.38;;
51877;SDS011;37911;51.526;11.536;2023-07-20T11:48:30;3.95;;;3.55;;
51877;SDS011;37911;51.526;11.536;2023-07-20T11:51:34;5.45;;;3.75;;
51877;SDS011;37911;51.526;11.536;2023-07-20T11:54:39;13.88;;;6.18;;
51877;SDS011;37911;51.526;11.536;2023-07-20T12:01:04;3.25;;;2.30;;
51877;SDS011;37911;51.526;11.536;2023-07-20T12:04:11;2.72;;;1.83;;
51877;SDS011;37911;51.526;11.536;2023-07-20T12:07:14;1.40;;;1.30;;
51877;SDS011;37911;51.526;11.536;2023-07-20T12:10:23;2.55;;;1.33;;
51877;SDS011;37911;51.526;11.536;2023-07-20T12:13:37;1.52;;;1.33;;
51877;SDS011;37911;51.526;11.536;2023-07-20T12:16:42;1.83;;;1.40;;
51877;SDS011;37911;51.526;11.536;2023-07-20T12:19:48;2.05;;;0.95;;
51877;SDS011;37911;51.526;11.536;2023-07-20T12:22:55;1.40;;;0.95;;
51877;SDS011;37911;51.526;11.536;2023-07-20T12:26:00;0.93;;;0.82;;
51877;SDS011;37911;51.526;11.536;2023-07-20T12:29:04;1.15;;;0.93;;
51877;SDS011;37911;51.526;11.536;2023-07-20T12:32:07;1.27;;;0.85;;
51877;SDS011;37911;51.526;11.536;2023-07-20T12:35:14;1.80;;;0.95;;
51877;SDS011;37911;51.526;11.536;2023-07-20T12:38:19;1.65;;;1.10;;
51877;SDS011;37911;51.526;11.536;2023-07-20T12:41:23;1.10;;;0.90;;
51877;SDS011;37911;51.526;11.536;2023-07-20T12:44:27;3.85;;;1.10;;
51877;SDS011;37911;51.526;11.536;2023-07-20T12:47:30;2.38;;;1.02;;
51877;SDS011;37911;51.526;11.536;2023-07-20T12:50:36;3.97;;;1.00;;
51877;SDS011;37911;51.526;11.536;2023-07-20T12:53:39;1.88;;;0.80;;
51877;SDS011;37911;51.526;11.536;2023-07-20T12:56:43;1.77;;;1.00;;
51877;SDS011;37911;51.526;11.536;2023-07-20T12:59:46;1.10;;;1.00;;
51877;SDS011;37911;51.526;11.536;2023-07-20T13:02:50;1.85;;;0.98;;
51877;SDS011;37911;51.526;11.536;2023-07-20T13:05:56;2.58;;;1.05;;
51877;SDS011;37911;51.526;11.536;2023-07-20T13:08:59;1.73;;;0.90;;
51877;SDS011;37911;51.526;11.536;2023-07-20T13:12:04;1.63;;;1.00;;
51877;SDS011;37911;51.526;11.536;2023-07-20T13:15:09;3.20;;;0.88;;
51877;SDS011;37911;51.526;11.536;2023-07-20T13:18:14;1.30;;;0.88;;
51877;SDS011;37911;51.526;11.536;2023-07-20T13:21:22;2.55;;;1.00;;
51877;SDS011;37911;51.526;11.536;2023-07-20T13:24:26;2.80;;;1.10;;
51877;SDS011;37911;51.526;11.536;2023-07-20T13:27:30;2.13;;;0.90;;
51877;SDS011;37911;51.526;11.536;2023-07-20T13:30:34;1.17;;;1.08;;
51877;SDS011;37911;51.526;11.536;2023-07-20T13:33:38;1.00;;;0.90;;
51877;SDS011;37911;51.526;11.536;2023-07-20T13:36:44;2.35;;;1.00;;
51877;SDS011;37911;51.526;11.536;2023-07-20T13:39:52;2.45;;;1.23;;
51877;SDS011;37911;51.526;11.536;2023-07-20T13:42:55;1.85;;;0.88;;
51877;SDS011;37911;51.526;11.536;2023-07-20T13:45:59;2.47;;;1.13;;
51877;SDS011;37911;51.526;11.536;2023-07-20T13:49:03;1.33;;;1.20;;
51877;SDS011;37911;51.526;11.536;2023-07-20T13:52:09;3.63;;;1.00;;
51877;SDS011;37911;51.526;11.536;2023-07-20T13:55:13;2.92;;;1.20;;
51877;SDS011;37911;51.526;11.536;2023-07-20T13:58:16;2.25;;;0.90;;
51877;SDS011;37911;51.526;11.536;2023-07-20T14:01:20;1.77;;;0.90;;
51877;SDS011;37911;51.526;11.536;2023-07-20T14:04:26;3.00;;;1.30;;
51877;SDS011;37911;51.526;11.536;2023-07-20T14:07:35;1.38;;;1.05;;
51877;SDS011;37911;51.526;11.536;2023-07-20T14:10:40;4.45;;;1.33;;
51877;SDS011;37911;51.526;11.536;2023-07-20T14:13:45;0.98;;;0.70;;
51877;SDS011;37911;51.526;11.536;2023-07-20T14:16:49;1.23;;;0.80;;
51877;SDS011;37911;51.526;11.536;2023-07-20T14:19:53;0.88;;;0.70;;
51877;SDS011;37911;51.526;11.536;2023-07-20T14:22:59;2.33;;;0.80;;
51877;SDS011;37911;51.526;11.536;2023-07-20T14:26:03;2.78;;;0.90;;
51877;SDS011;37911;51.526;11.536;2023-07-20T14:29:07;0.70;;;0.70;;
51877;SDS011;37911;51.526;11.536;2023-07-20T14:32:11;1.30;;;0.90;;
51877;SDS011;37911;51.526;11.536;2023-07-20T14:35:14;0.90;;;0.70;;
51877;SDS011;37911;51.526;11.536;2023-07-20T14:38:20;0.95;;;0.60;;
51877;SDS011;37911;51.526;11.536;2023-07-20T14:41:24;1.35;;;0.70;;
51877;SDS011;37911;51.526;11.536;2023-07-20T14:44:28;0.95;;;0.70;;
51877;SDS011;37911;51.526;11.536;2023-07-20T14:47:31;0.73;;;0.70;;
51877;SDS011;37911;51.526;11.536;2023-07-20T14:50:35;1.63;;;0.73;;
51877;SDS011;37911;51.526;11.536;2023-07-20T14:53:41;1.92;;;0.70;;
51877;SDS011;37911;51.526;11.536;2023-07-20T14:56:48;4.13;;;0.75;;
51877;SDS011;37911;51.526;11.536;2023-07-20T14:59:54;1.02;;;0.60;;
51877;SDS011;37911;51.526;11.536;2023-07-20T15:02:58;0.90;;;0.80;;
51877;SDS011;37911;51.526;11.536;2023-07-20T15:06:01;3.60;;;0.93;;
51877;SDS011;37911;51.526;11.536;2023-07-20T15:09:08;3.95;;;0.60;;
51877;SDS011;37911;51.526;11.536;2023-07-20T15:12:11;1.20;;;0.88;;
51877;SDS011;37911;51.526;11.536;2023-07-20T15:15:15;0.80;;;0.80;;
51877;SDS011;37911;51.526;11.536;2023-07-20T15:18:19;3.00;;;0.75;;
51877;SDS011;37911;51.526;11.536;2023-07-20T15:21:23;2.15;;;0.60;;
51877;SDS011;37911;51.526;11.536;2023-07-20T15:24:33;2.70;;;0.90;;
51877;SDS011;37911;51.526;11.536;2023-07-20T15:27:37;0.82;;;0.80;;
51877;SDS011;37911;51.526;11.536;2023-07-20T15:30:41;1.48;;;0.65;;
51877;SDS011;37911;51.526;11.536;2023-07-20T15:33:45;3.38;;;0.90;;
51877;SDS011;37911;51.526;11.536;2023-07-20T15:36:48;1.30;;;0.80;;
51877;SDS011;37911;51.526;11.536;2023-07-20T15:39:55;8.23;;;1.00;;
51877;SDS011;37911;51.526;11.536;2023-07-20T15:42:58;1.45;;;0.75;;
51877;SDS011;37911;51.526;11.536;2023-07-20T15:46:02;0.98;;;0.80;;
51877;SDS011;37911;51.526;11.536;2023-07-20T15:49:28;0.75;;;0.70;;
51877;SDS011;37911;51.526;11.536;2023-07-20T15:52:32;2.33;;;0.73;;
51877;SDS011;37911;51.526;11.536;2023-07-20T15:55:38;1.70;;;0.90;;
51877;SDS011;37911;51.526;11.536;2023-07-20T15:58:41;3.55;;;1.00;;
51877;SDS011;37911;51.526;11.536;2023-07-20T16:01:45;2.42;;;0.95;;
51877;SDS011;37911;51.526;11.536;2023-07-20T16:04:48;3.38;;;1.10;;
51877;SDS011;37911;51.526;11.536;2023-07-20T16:07:52;2.13;;;1.10;;
51877;SDS011;37911;51.526;11.536;2023-07-20T16:10:58;5.65;;;1.35;;
51877;SDS011;37911;51.526;11.536;2023-07-20T16:14:05;2.25;;;1.00;;
51877;SDS011;37911;51.526;11.536;2023-07-20T16:17:09;3.50;;;0.90;;
51877;SDS011;37911;51.526;11.536;2023-07-20T16:20:12;3.60;;;0.88;;
51877;SDS011;37911;51.526;11.536;2023-07-20T16:23:16;1.08;;;0.95;;
51877;SDS011;37911;51.526;11.536;2023-07-20T16:26:22;4.43;;;1.40;;
51877;SDS011;37911;51.526;11.536;2023-07-20T16:29:26;4.22;;;0.90;;
51877;SDS011;37911;51.526;11.536;2023-07-20T16:32:29;1.23;;;0.75;;
51877;SDS011;37911;51.526;11.536;2023-07-20T16:35:35;1.83;;;0.90;;
51877;SDS011;37911;51.526;11.536;2023-07-20T16:38:39;1.13;;;0.73;;
51877;SDS011;37911;51.526;11.536;2023-07-20T16:41:46;4.97;;;1.10;;
51877;SDS011;37911;51.526;11.536;2023-07-20T16:44:49;1.38;;;0.60;;
51877;SDS011;37911;51.526;11.536;2023-07-20T16:47:53;1.35;;;0.90;;
51877;SDS011;37911;51.526;11.536;2023-07-20T16:50:57;1.10;;;0.75;;
51877;SDS011;37911;51.526;11.536;2023-07-20T16:54:01;1.05;;;0.65;;
51877;SDS011;37911;51.526;11.536;2023-07-20T16:57:10;1.67;;;0.68;;
51877;SDS011;37911;51.526;11.536;2023-07-20T17:00:14;2.85;;;0.80;;
51877;SDS011;37911;51.526;11.536;2023-07-20T17:03:18;1.98;;;0.80;;
51877;SDS011;37911;51.526;11.536;2023-07-20T17:06:22;2.13;;;0.90;;
51877;SDS011;37911;51.526;11.536;2023-07-20T17:09:25;1.20;;;0.85;;
51877;SDS011;37911;51.526;11.536;2023-07-20T17:12:35;2.70;;;0.80;;
51877;SDS011;37911;51.526;11.536;2023-07-20T17:15:40;2.10;;;0.80;;
51877;SDS011;37911;51.526;11.536;2023-07-20T17:18:43;2.72;;;1.35;;
51877;SDS011;37911;51.526;11.536;2023-07-20T17:21:47;5.13;;;1.92;;
51877;SDS011;37911;51.526;11.536;2023-07-20T17:24:50;3.30;;;1.50;;
51877;SDS011;37911;51.526;11.536;2023-07-20T17:27:56;3.85;;;1.70;;
51877;SDS011;37911;51.526;11.536;2023-07-20T17:31:00;3.45;;;1.45;;
51877;SDS011;37911;51.526;11.536;2023-07-20T17:34:03;2.60;;;1.73;;
51877;SDS011;37911;51.526;11.536;2023-07-20T17:37:07;3.55;;;2.03;;
51877;SDS011;37911;51.526;11.536;2023-07-20T17:40:11;2.78;;;1.98;;
51877;SDS011;37911;51.526;11.536;2023-07-20T17:43:17;4.85;;;2.40;;
51877;SDS011;37911;51.526;11.536;2023-07-20T17:46:21;2.72;;;1.95;;
51877;SDS011;37911;51.526;11.536;2023-07-20T17:49:24;3.78;;;1.80;;
51877;SDS011;37911;51.526;11.536;2023-07-20T17:52:28;2.67;;;1.20;;
51877;SDS011;37911;51.526;11.536;2023-07-20T17:55:32;3.45;;;0.80;;
51877;SDS011;37911;51.526;11.536;2023-07-20T17:58:38;2.25;;;0.90;;
51877;SDS011;37911;51.526;11.536;2023-07-20T18:01:41;8.32;;;1.30;;
51877;SDS011;37911;51.526;11.536;2023-07-20T18:04:45;4.00;;;1.08;;
51877;SDS011;37911;51.526;11.536;2023-07-20T18:07:48;1.48;;;0.80;;
51877;SDS011;37911;51.526;11.536;2023-07-20T18:10:52;1.42;;;1.20;;
51877;SDS011;37911;51.526;11.536;2023-07-20T18:13:58;1.95;;;1.00;;
51877;SDS011;37911;51.526;11.536;2023-07-20T18:17:02;1.10;;;0.80;;
51877;SDS011;37911;51.526;11.536;2023-07-20T18:20:08;2.85;;;1.00;;